Time;durP1;ratioP1;P1;durP2;ratioP2;P2;SDS_P1;SDS_P2;PMS_P1;PMS_P2;Temp;Humidity;BMP_temperature;BMP_pressure;BME280_temperature;BME280_humidity;BME280_pressure;Samples;Min_cycle;Max_cycle;Signal;HPM_P1;HPM_P2
2023/03/03 00:04:14;;;;;;;31.80;17.52;;;;;;;6.42;71.38;99683.81;4940695;29;20410;-94
2023/03/03 00:06:40;;;;;;;29.90;16.58;;;;;;;6.44;71.39;99688.94;4892500;29;20035;-94
2023/03/03 00:09:06;;;;;;;35.80;17.20;;;;;;;6.36;71.78;99686.59;4892872;29;20398;-92
2023/03/03 00:11:31;;;;;;;28.67;17.42;;;;;;;6.37;71.57;99677.53;4891400;29;20043;-94
2023/03/03 00:14:09;;;;;;;27.00;16.67;;;;;;;6.38;71.46;99663.94;4892505;29;20513;-94
2023/03/03 00:16:36;;;;;;;34.28;16.67;;;;;;;6.44;71.74;99675.56;4908913;29;20429;-94
2023/03/03 00:19:05;;;;;;;31.42;16.75;;;;;;;6.37;70.84;99656.97;4892016;29;20028;-92
2023/03/03 00:21:41;;;;;;;27.58;16.85;;;;;;;6.45;70.86;99658.44;4893045;29;20015;-93
2023/03/03 00:24:23;;;;;;;31.50;17.05;;;;;;;6.49;70.50;99662.28;4891956;29;20030;-93
2023/03/03 00:26:56;;;;;;;31.52;16.48;;;;;;;6.41;70.68;99638.56;4892763;29;20027;-94
2023/03/03 00:29:30;;;;;;;30.60;16.52;;;;;;;6.42;70.31;99649.03;4892446;29;20051;-94
2023/03/03 00:32:11;;;;;;;27.88;16.75;;;;;;;6.33;70.77;99641.59;4891748;29;20036;-94
2023/03/03 00:34:36;;;;;;;30.15;18.05;;;;;;;6.57;70.08;99653.09;4908833;29;20036;-93
2023/03/03 00:37:02;;;;;;;31.17;18.45;;;;;;;6.44;70.80;99636.25;4891670;29;20566;-93
2023/03/03 00:39:37;;;;;;;36.25;18.33;;;;;;;6.36;70.79;99636.59;4891227;29;20032;-94
2023/03/03 00:42:13;;;;;;;32.22;18.67;;;;;;;6.51;70.84;99644.13;4891425;29;20020;-93
2023/03/03 00:44:46;;;;;;;32.03;17.77;;;;;;;6.39;70.45;99622.78;4891802;29;20022;-94
2023/03/03 00:47:24;;;;;;;32.58;18.08;;;;;;;6.44;70.56;99627.41;4892067;29;20031;-93
2023/03/03 00:49:49;;;;;;;30.02;16.25;;;;;;;6.51;70.32;99636.13;4907008;29;20054;-93
2023/03/03 00:52:25;;;;;;;32.83;18.10;;;;;;;6.48;70.59;99626.72;4891438;29;20055;-95
2023/03/03 00:54:51;;;;;;;30.75;16.75;;;;;;;6.48;71.05;99623.22;4891632;29;20482;-95
2023/03/03 00:57:17;;;;;;;31.95;17.48;;;;;;;6.45;70.66;99626.34;4891040;29;20026;-94
2023/03/03 00:59:42;;;;;;;34.63;17.95;;;;;;;6.33;70.71;99610.34;4891061;29;20498;-94
2023/03/03 01:02:08;;;;;;;32.30;17.77;;;;;;;6.37;70.87;99616.00;4891653;29;20020;-94
2023/03/03 01:04:34;;;;;;;33.20;17.40;;;;;;;6.43;70.81;99625.78;4891414;29;20028;-94
2023/03/03 01:06:59;;;;;;;31.85;17.85;;;;;;;6.38;70.76;99614.97;4891250;29;20039;-93
2023/03/03 01:09:25;;;;;;;29.45;17.73;;;;;;;6.33;70.37;99596.97;4906825;29;20524;-94
2023/03/03 01:11:50;;;;;;;32.50;18.52;;;;;;;6.36;71.11;99606.38;4891046;29;20414;-93
2023/03/03 01:14:16;;;;;;;31.75;17.73;;;;;;;6.41;69.94;99615.34;4891223;29;20032;-93
2023/03/03 01:16:42;;;;;;;29.52;17.30;;;;;;;6.34;70.62;99603.13;4890891;29;20028;-94
2023/03/03 01:19:07;;;;;;;35.00;18.35;;;;;;;6.30;71.35;99600.09;4891127;29;20161;-94
2023/03/03 01:21:33;;;;;;;32.75;17.05;;;;;;;6.30;70.91;99601.97;4891016;29;20559;-94
2023/03/03 01:23:58;;;;;;;33.47;16.33;;;;;;;6.33;70.37;99583.59;4890932;29;20490;-93
2023/03/03 01:26:24;;;;;;;27.98;16.90;;;;;;;6.30;70.94;99596.63;4889940;29;20471;-93
2023/03/03 01:28:50;;;;;;;26.05;16.15;;;;;;;6.31;70.40;99584.88;4890489;29;20035;-94
2023/03/03 01:31:18;;;;;;;29.63;16.55;;;;;;;6.22;70.96;99589.75;4890637;29;20051;-92
2023/03/03 01:33:44;;;;;;;30.08;17.40;;;;;;;6.31;71.55;99596.41;4906431;29;20027;-94
2023/03/03 01:36:10;;;;;;;30.20;16.42;;;;;;;6.29;70.93;99587.78;4889971;29;20060;-93
2023/03/03 01:38:36;;;;;;;31.33;17.85;;;;;;;6.28;71.06;99588.81;4890611;29;20097;-94
2023/03/03 01:41:01;;;;;;;31.00;16.85;;;;;;;6.20;71.45;99579.28;4890208;29;20030;-93
2023/03/03 01:43:29;;;;;;;32.85;17.88;;;;;;;6.27;70.82;99584.53;4891642;29;20027;-93
2023/03/03 01:45:56;;;;;;;32.10;17.20;;;;;;;6.40;70.77;99597.66;4891029;29;20039;-94
2023/03/03 01:48:24;;;;;;;28.67;16.73;;;;;;;6.34;71.27;99593.22;4921579;29;20414;-94
2023/03/03 01:50:53;;;;;;;26.95;15.80;;;;;;;6.37;69.34;99584.75;4921686;29;20036;-94
2023/03/03 01:53:23;;;;;;;29.83;16.00;;;;;;;6.30;68.86;99567.22;4890285;29;20032;-94
2023/03/03 01:55:49;;;;;;;26.13;15.82;;;;;;;6.20;69.62;99575.81;4890335;29;20034;-94
2023/03/03 01:58:22;;;;;;;27.10;16.52;;;;;;;6.20;70.52;99581.97;4889894;29;20040;-94
2023/03/03 02:00:50;;;;;;;27.85;17.00;;;;;;;6.15;70.27;99592.56;4890312;29;20039;-94
2023/03/03 02:03:16;;;;;;;29.83;17.30;;;;;;;6.10;70.83;99592.47;4889997;29;20118;-94
2023/03/03 02:05:42;;;;;;;30.98;17.10;;;;;;;6.02;70.60;99574.09;4889990;29;20038;-94
2023/03/03 02:08:09;;;;;;;29.83;16.00;;;;;;;6.04;71.22;99574.69;4890000;29;20065;-94
2023/03/03 02:10:34;;;;;;;27.67;16.58;;;;;;;6.02;70.83;99580.25;4889718;29;20139;-94
2023/03/03 02:13:00;;;;;;;30.48;16.95;;;;;;;6.09;70.08;99565.97;4889889;29;20118;-93
2023/03/03 02:15:34;;;;;;;31.10;16.70;;;;;;;6.03;70.11;99565.03;4890273;29;20387;-93
2023/03/03 02:18:18;;;;;;;28.88;16.83;;;;;;;6.12;69.48;99571.66;4889856;29;20030;-93
2023/03/03 02:20:56;;;;;;;29.02;16.83;;;;;;;6.25;69.51;99574.06;4890038;29;20043;-94
2023/03/03 02:23:24;;;;;;;27.73;16.60;;;;;;;6.18;69.24;99570.69;4904378;29;20027;-95
2023/03/03 02:25:55;;;;;;;27.60;16.30;;;;;;;6.17;70.15;99589.66;4905071;29;20031;-94
2023/03/03 02:28:23;;;;;;;27.17;15.60;;;;;;;6.11;70.35;99587.94;4920591;29;20121;-95
2023/03/03 02:30:49;;;;;;;28.60;17.00;;;;;;;6.15;69.65;99573.84;4889711;29;20549;-95
2023/03/03 02:33:17;;;;;;;29.17;17.00;;;;;;;6.23;69.38;99573.50;4889109;29;20034;-94
2023/03/03 02:35:42;;;;;;;34.53;17.13;;;;;;;6.19;69.63;99574.19;4889765;29;20027;-94
2023/03/03 02:38:11;;;;;;;30.42;16.38;;;;;;;6.18;69.63;99572.56;4889415;29;20032;-93
2023/03/03 02:40:37;;;;;;;26.70;16.50;;;;;;;6.33;69.67;99582.75;4905168;29;20517;-94
2023/03/03 02:43:03;;;;;;;25.60;16.38;;;;;;;6.34;69.12;99571.03;4889572;29;20121;-94
2023/03/03 02:45:29;;;;;;;24.95;15.02;;;;;;;6.38;69.59;99564.97;4889487;29;20031;-93
2023/03/03 02:47:57;;;;;;;29.02;15.50;;;;;;;6.35;69.36;99584.19;4889181;29;20145;-93
2023/03/03 02:50:23;;;;;;;24.75;15.45;;;;;;;6.30;68.91;99560.00;4889820;29;20060;-93
2023/03/03 02:52:52;;;;;;;27.50;15.73;;;;;;;6.34;69.67;99581.72;4889175;29;20103;-92
2023/03/03 02:55:24;;;;;;;28.17;17.10;;;;;;;6.33;70.68;99588.94;4889136;29;20035;-93
2023/03/03 02:57:52;;;;;;;31.10;17.38;;;;;;;6.17;71.81;99587.00;4888892;29;20023;-94
2023/03/03 03:00:20;;;;;;;28.85;17.35;;;;;;;6.11;72.04;99585.25;4905362;29;20481;-93
2023/03/03 03:02:45;;;;;;;29.73;18.20;;;;;;;6.16;72.33;99586.16;4889469;29;20031;-94
2023/03/03 03:05:11;;;;;;;29.15;16.25;;;;;;;6.01;72.84;99586.63;4889231;29;20041;-94
2023/03/03 03:07:37;;;;;;;30.67;17.70;;;;;;;6.22;72.67;99593.25;4889765;29;20036;-93
2023/03/03 03:10:03;;;;;;;31.23;17.55;;;;;;;6.09;72.97;99590.03;4889347;29;20123;-93
2023/03/03 03:12:28;;;;;;;30.80;18.52;;;;;;;6.10;72.47;99592.47;4890025;29;20035;-94
2023/03/03 03:14:54;;;;;;;29.20;16.88;;;;;;;6.01;72.29;99581.28;4890188;29;20039;-93
2023/03/03 03:17:19;;;;;;;31.48;17.98;;;;;;;6.15;71.94;99581.88;4889494;29;20128;-94
2023/03/03 03:19:45;;;;;;;30.20;16.92;;;;;;;6.34;70.77;99579.06;4888945;29;20067;-94
2023/03/03 03:22:11;;;;;;;27.63;16.80;;;;;;;6.41;70.61;99579.72;4888908;29;20190;-93
2023/03/03 03:24:37;;;;;;;27.92;15.93;;;;;;;6.43;69.50;99569.59;4888557;29;20063;-93
2023/03/03 03:27:03;;;;;;;23.98;15.35;;;;;;;6.40;69.71;99565.56;4889084;29;20032;-93
2023/03/03 03:29:31;;;;;;;32.38;16.33;;;;;;;6.48;69.16;99569.72;4891663;29;20528;-94
2023/03/03 03:31:57;;;;;;;24.10;15.55;;;;;;;6.49;69.39;99574.00;4893250;29;20043;-94
2023/03/03 03:34:43;;;;;;;28.20;16.20;;;;;;;6.39;69.40;99560.44;4892514;29;20391;-94
2023/03/03 03:37:09;;;;;;;25.70;16.20;;;;;;;6.55;69.32;99567.72;4893294;29;20491;-94
2023/03/03 03:39:35;;;;;;;27.17;16.23;;;;;;;6.62;68.88;99579.13;4892895;29;20036;-93
2023/03/03 03:42:10;;;;;;;25.65;15.30;;;;;;;6.58;68.89;99580.63;4892214;29;20027;-93
2023/03/03 03:44:36;;;;;;;27.73;15.52;;;;;;;6.55;68.89;99562.38;4895086;29;20046;-94
2023/03/03 03:47:04;;;;;;;24.95;15.07;;;;;;;6.59;68.00;99570.75;4892527;29;20032;-94
2023/03/03 03:49:29;;;;;;;26.40;15.73;;;;;;;6.59;68.21;99568.88;4892555;29;20039;-93
2023/03/03 03:51:55;;;;;;;30.42;15.77;;;;;;;6.61;67.72;99574.78;4892159;29;20062;-94
2023/03/03 03:54:20;;;;;;;29.23;16.08;;;;;;;6.48;67.79;99559.84;4893080;29;20554;-93
2023/03/03 03:56:46;;;;;;;26.48;16.05;;;;;;;6.54;68.21;99565.31;4892443;29;20040;-93
2023/03/03 03:59:11;;;;;;;27.60;16.85;;;;;;;6.55;68.54;99561.56;4892000;29;20070;-93
2023/03/03 04:01:37;;;;;;;28.35;16.52;;;;;;;6.60;68.49;99557.13;4892386;29;20028;-94
2023/03/03 04:04:03;;;;;;;28.23;16.38;;;;;;;6.52;69.58;99554.03;4892455;29;20032;-94
2023/03/03 04:06:29;;;;;;;28.70;17.17;;;;;;;6.51;69.75;99545.16;4892087;29;20410;-94
2023/03/03 04:08:55;;;;;;;27.08;16.80;;;;;;;6.33;70.63;99538.13;4891745;29;20039;-94
2023/03/03 04:11:20;;;;;;;26.00;15.77;;;;;;;6.21;71.24;99554.19;4891905;29;20052;-94
2023/03/03 04:13:49;;;;;;;29.98;17.23;;;;;;;6.18;71.28;99543.16;4892040;29;20093;-94
2023/03/03 04:16:15;;;;;;;27.13;16.55;;;;;;;6.25;71.09;99555.34;4892086;29;20101;-93
2023/03/03 04:18:41;;;;;;;28.15;16.92;;;;;;;6.20;71.70;99547.22;4891642;29;20459;-94
2023/03/03 04:21:13;;;;;;;29.55;16.00;;;;;;;6.17;71.48;99552.25;4892616;29;20047;-93
2023/03/03 04:23:39;;;;;;;27.45;16.42;;;;;;;6.21;71.15;99548.84;4892307;29;20027;-94
2023/03/03 04:26:07;;;;;;;27.60;17.02;;;;;;;5.98;71.87;99530.19;4891582;29;20103;-93
2023/03/03 04:28:33;;;;;;;31.58;17.63;;;;;;;6.10;72.00;99549.69;4891681;29;20043;-95
2023/03/03 04:30:59;;;;;;;32.58;16.70;;;;;;;6.08;71.42;99530.41;4891819;29;20034;-93
2023/03/03 04:33:25;;;;;;;28.80;16.83;;;;;;;6.08;71.93;99541.09;4891474;29;20542;-94
2023/03/03 04:35:50;;;;;;;32.15;15.88;;;;;;;6.11;71.93;99548.63;4892142;29;20035;-92
2023/03/03 04:38:16;;;;;;;30.67;17.73;;;;;;;6.16;71.45;99554.06;4891480;29;20471;-93
2023/03/03 04:40:42;;;;;;;30.52;16.63;;;;;;;6.14;71.50;99558.03;4891491;29;20031;-93
2023/03/03 04:43:08;;;;;;;33.00;17.42;;;;;;;5.95;71.53;99530.63;4891714;29;20035;-93
2023/03/03 04:45:34;;;;;;;27.73;15.90;;;;;;;6.03;71.63;99540.97;4891741;29;20027;-94
2023/03/03 04:47:59;;;;;;;29.42;16.60;;;;;;;6.00;71.61;99534.25;4891731;29;20055;-93
2023/03/03 04:50:25;;;;;;;29.67;16.70;;;;;;;6.10;71.23;99559.56;4891492;29;20130;-93
2023/03/03 04:52:51;;;;;;;28.13;16.40;;;;;;;6.02;71.61;99550.06;4907248;29;20027;-94
2023/03/03 04:55:16;;;;;;;30.77;16.52;;;;;;;5.98;71.71;99554.25;4907422;29;20094;-93
2023/03/03 04:57:42;;;;;;;26.25;16.05;;;;;;;6.05;72.00;99561.06;4891204;29;20038;-94
2023/03/03 05:00:11;;;;;;;26.27;15.63;;;;;;;6.06;71.43;99567.25;4891538;29;20028;-92
2023/03/03 05:02:38;;;;;;;29.08;16.27;;;;;;;5.94;70.97;99567.22;4891882;29;20035;-93
2023/03/03 05:05:05;;;;;;;27.80;16.90;;;;;;;5.95;70.61;99562.72;4891293;29;20031;-92
2023/03/03 05:07:30;;;;;;;27.38;16.08;;;;;;;5.96;69.67;99561.69;4890899;29;20042;-93
2023/03/03 05:09:56;;;;;;;31.08;16.70;;;;;;;5.83;70.19;99557.31;4891807;29;20035;-93
2023/03/03 05:12:22;;;;;;;27.90;16.40;;;;;;;5.93;70.68;99564.78;4890611;29;20028;-94
2023/03/03 05:14:47;;;;;;;28.77;16.08;;;;;;;5.79;70.85;99572.19;4906049;29;20094;-93
2023/03/03 05:17:13;;;;;;;27.83;15.85;;;;;;;5.82;70.08;99577.09;4890748;29;20414;-93
2023/03/03 05:19:39;;;;;;;27.45;16.20;;;;;;;5.81;70.93;99575.44;4890803;29;20131;-93
2023/03/03 05:22:05;;;;;;;27.17;16.63;;;;;;;5.76;70.71;99581.50;4890221;29;20111;-93
2023/03/03 05:24:30;;;;;;;32.05;17.08;;;;;;;5.80;71.22;99579.19;4890597;29;20059;-93
2023/03/03 05:26:56;;;;;;;31.23;18.45;;;;;;;5.73;70.91;99571.28;4890399;29;20047;-93
2023/03/03 05:29:25;;;;;;;39.72;19.95;;;;;;;5.54;71.14;99554.56;4889877;29;20134;-93
2023/03/03 05:31:50;;;;;;;38.20;18.98;;;;;;;5.54;70.93;99562.56;4891054;29;20066;-94
2023/03/03 05:34:16;;;;;;;40.05;20.33;;;;;;;5.64;71.58;99576.16;4890096;29;20051;-93
2023/03/03 05:36:42;;;;;;;33.58;17.60;;;;;;;5.53;70.93;99557.44;4890457;29;20071;-93
2023/03/03 05:39:08;;;;;;;35.45;18.08;;;;;;;5.50;71.71;99566.72;4890390;29;20098;-92
2023/03/03 05:41:35;;;;;;;35.75;20.20;;;;;;;5.52;71.98;99575.34;4890522;29;20024;-93
2023/03/03 05:44:02;;;;;;;31.05;18.05;;;;;;;5.30;72.36;99561.69;4890834;29;20028;-93
2023/03/03 05:46:28;;;;;;;41.80;22.60;;;;;;;5.33;72.51;99582.59;4890904;29;20032;-94
2023/03/03 05:48:53;;;;;;;38.95;19.35;;;;;;;5.28;72.17;99554.97;4890070;29;20059;-92
2023/03/03 05:51:22;;;;;;;33.63;18.83;;;;;;;5.24;73.06;99559.94;4890327;29;20479;-92
2023/03/03 05:53:48;;;;;;;33.60;18.52;;;;;;;5.24;73.72;99573.28;4891244;29;20027;-93
2023/03/03 05:56:13;;;;;;;38.28;20.20;;;;;;;5.21;73.41;99576.44;4889667;29;20034;-93
2023/03/03 05:58:39;;;;;;;34.65;19.52;;;;;;;5.18;73.82;99564.34;4890191;29;20020;-93
2023/03/03 06:01:04;;;;;;;30.17;17.83;;;;;;;5.11;73.91;99576.97;4889712;29;20038;-93
2023/03/03 06:03:30;;;;;;;38.58;19.30;;;;;;;5.16;73.67;99574.41;4889520;29;20020;-93
2023/03/03 06:06:15;;;;;;;;;;;;;;;;;;;;;
2023/03/03 06:09:14;;;;;;;33.47;18.55;;;;;;;5.37;73.78;99594.44;4919514;29;20080;-96
2023/03/03 06:35:59;;;;;;;41.22;21.10;;;;;;;5.53;74.45;99595.63;5097891;23;20056;-92
2023/03/03 06:38:25;;;;;;;37.03;20.60;;;;;;;5.45;74.36;99572.75;4890875;29;20044;-93
2023/03/03 06:40:50;;;;;;;36.70;20.00;;;;;;;5.66;73.71;99594.59;4890297;29;20034;-93
2023/03/03 06:43:16;;;;;;;36.95;20.20;;;;;;;5.71;74.09;99605.44;4889585;29;20023;-92
2023/03/03 06:45:44;;;;;;;40.15;20.38;;;;;;;5.65;74.30;99599.16;4889128;29;20115;-92
2023/03/03 06:48:12;;;;;;;37.92;20.90;;;;;;;5.60;74.29;99603.53;4889886;29;20402;-93
2023/03/03 06:50:38;;;;;;;37.38;19.42;;;;;;;5.65;73.55;99598.34;4890092;29;20114;-93
2023/03/03 06:53:09;;;;;;;35.47;19.35;;;;;;;5.75;73.79;99598.59;4890682;29;20031;-94
2023/03/03 06:55:35;;;;;;;42.53;20.23;;;;;;;5.62;73.19;99585.44;4905745;29;20505;-93
2023/03/03 06:58:09;;;;;;;46.70;20.88;;;;;;;5.55;74.27;99590.88;4889410;29;20032;-95
2023/03/03 07:00:40;;;;;;;43.40;20.83;;;;;;;5.56;74.73;99595.19;4890669;29;20505;-93
2023/03/03 07:03:18;;;;;;;41.72;21.48;;;;;;;5.63;75.06;99581.72;4891337;29;20028;-94
2023/03/03 07:05:44;;;;;;;35.92;21.20;;;;;;;5.67;74.49;99578.34;4890949;29;20650;-94
2023/03/03 07:08:18;;;;;;;39.05;21.08;;;;;;;5.73;76.39;99597.16;4891078;29;20034;-94
2023/03/03 07:10:44;;;;;;;37.53;19.50;;;;;;;5.79;75.72;99585.56;4890181;29;20035;-93
2023/03/03 07:13:24;;;;;;;35.60;19.55;;;;;;;5.84;75.69;99594.50;4889190;29;20027;-92
2023/03/03 07:15:52;;;;;;;36.45;18.35;;;;;;;5.94;74.14;99583.25;4904373;29;20062;-94
2023/03/03 07:18:34;;;;;;;34.75;19.88;;;;;;;5.97;75.03;99604.19;4888938;29;20024;-94
2023/03/03 07:21:18;;;;;;;33.13;18.77;;;;;;;5.94;75.15;99593.13;4889839;29;20083;-93
2023/03/03 07:23:45;;;;;;;35.85;19.65;;;;;;;5.87;75.08;99553.97;4890684;29;20035;-94
2023/03/03 07:26:11;;;;;;;37.35;19.13;;;;;;;5.99;74.72;99582.56;4888863;29;20099;-93
2023/03/03 07:28:39;;;;;;;38.88;20.33;;;;;;;6.01;74.57;99583.16;4888806;29;20047;-94
2023/03/03 07:31:25;;;;;;;36.70;20.13;;;;;;;5.89;75.04;99577.78;4904417;29;20039;-93
2023/03/03 07:33:54;;;;;;;40.22;20.40;;;;;;;6.16;74.02;99582.69;4890765;29;20454;-93
2023/03/03 07:36:33;;;;;;;39.15;19.77;;;;;;;6.27;73.83;99579.19;4899053;29;20400;-93
2023/03/03 07:39:01;;;;;;;30.33;18.02;;;;;;;6.19;74.54;99567.00;4901303;29;20028;-95
2023/03/03 07:41:26;;;;;;;36.58;17.90;;;;;;;6.36;74.27;99576.97;4901077;29;20032;-93
2023/03/03 07:43:58;;;;;;;29.27;17.17;;;;;;;6.37;73.50;99563.38;4900619;29;20032;-93
2023/03/03 07:46:40;;;;;;;;;;;;;;;6.44;72.47;99577.41;4917758;29;20116;-94
2023/03/03 07:49:42;;;;;;;33.83;17.30;;;;;;;6.09;73.74;99552.59;4901705;29;20305;-94
2023/03/03 07:52:46;;;;;;;;;;;;;;;6.29;73.35;99577.09;4882332;29;20531;-93
2023/03/03 07:55:25;;;;;;;29.52;17.00;;;;;;;6.34;72.62;99563.81;4807982;29;19912;-94
2023/03/03 07:57:51;;;;;;;36.45;17.23;;;;;;;6.36;71.92;99560.91;4860597;29;20040;-93
2023/03/03 08:00:17;;;;;;;29.83;16.75;;;;;;;6.27;73.09;99558.59;4867025;29;20028;-94
2023/03/03 08:03:18;;;;;;;36.15;18.95;;;;;;;6.46;72.40;99559.25;4898094;29;20037;-93
2023/03/03 08:05:46;;;;;;;32.72;17.52;;;;;;;6.52;72.25;99554.84;4827368;29;20033;-94
2023/03/03 08:08:29;;;;;;;34.63;17.92;;;;;;;6.65;71.92;99564.44;4844955;29;20047;-94
2023/03/03 08:10:59;;;;;;;37.88;20.15;;;;;;;6.66;70.73;99529.44;4867065;29;20104;-93
2023/03/03 08:13:33;;;;;;;35.70;18.88;;;;;;;6.75;70.04;99555.81;4866188;29;20072;-92
2023/03/03 08:16:02;;;;;;;36.60;18.40;;;;;;;6.65;70.42;99559.91;4900241;29;20521;-92
2023/03/03 08:18:30;;;;;;;30.35;16.85;;;;;;;6.53;70.44;99529.69;4885274;29;20076;-92
2023/03/03 08:20:58;;;;;;;36.60;18.02;;;;;;;6.53;71.14;99553.75;4886292;29;20074;-93
2023/03/03 08:23:24;;;;;;;33.33;18.73;;;;;;;6.64;70.49;99544.06;4889987;29;20040;-94
2023/03/03 08:25:50;;;;;;;36.40;18.65;;;;;;;6.73;70.57;99541.84;4904884;29;20491;-93
2023/03/03 08:28:16;;;;;;;32.30;17.25;;;;;;;6.64;70.03;99528.00;4904621;29;20072;-93
2023/03/03 08:30:42;;;;;;;34.95;17.83;;;;;;;6.54;71.30;99534.00;4904871;29;20027;-93
2023/03/03 08:33:07;;;;;;;30.95;17.88;;;;;;;6.68;70.62;99526.50;4904239;29;20566;-93
2023/03/03 08:35:33;;;;;;;41.50;20.00;;;;;;;6.90;70.31;99520.47;4903895;29;20062;-93
2023/03/03 08:37:59;;;;;;;35.70;18.13;;;;;;;6.95;69.87;99528.59;4905724;29;20114;-93
2023/03/03 08:40:24;;;;;;;37.08;18.73;;;;;;;6.82;70.65;99521.66;4905466;29;20040;-94
2023/03/03 08:42:50;;;;;;;36.70;19.00;;;;;;;6.63;70.68;99537.13;4904865;29;20080;-93
2023/03/03 08:45:16;;;;;;;36.55;19.58;;;;;;;6.55;71.25;99519.56;4904115;29;20067;-95
2023/03/03 08:47:43;;;;;;;48.13;20.52;;;;;;;6.81;70.61;99525.41;4904880;29;20096;-94
2023/03/03 08:50:12;;;;;;;35.63;19.17;;;;;;;6.79;69.77;99517.63;4904309;29;20111;-94
2023/03/03 08:52:37;;;;;;;36.10;18.08;;;;;;;6.90;70.02;99529.31;4904041;29;20501;-94
2023/03/03 08:55:03;;;;;;;40.50;18.80;;;;;;;6.91;69.49;99519.41;4903158;29;20115;-94
2023/03/03 08:57:29;;;;;;;35.75;19.15;;;;;;;6.92;70.20;99532.56;4907521;29;20028;-95
2023/03/03 08:59:55;;;;;;;36.05;18.98;;;;;;;7.02;69.62;99513.19;4904261;29;20038;-94
2023/03/03 09:02:23;;;;;;;34.75;19.27;;;;;;;7.02;69.44;99521.22;4903572;29;20032;-94
2023/03/03 09:04:48;;;;;;;42.40;18.60;;;;;;;7.09;69.35;99513.84;4903868;29;20028;-93
2023/03/03 09:07:14;;;;;;;40.50;19.52;;;;;;;7.19;68.42;99500.63;4903958;29;20036;-94
2023/03/03 09:09:40;;;;;;;36.72;19.75;;;;;;;7.39;68.21;99526.13;4903769;29;20071;-94
2023/03/03 09:12:18;;;;;;;34.55;19.17;;;;;;;7.21;68.14;99508.44;4904015;29;20047;-94
2023/03/03 09:14:43;;;;;;;36.30;18.70;;;;;;;7.04;68.67;99495.84;4904787;29;20032;-93
2023/03/03 09:17:23;;;;;;;38.55;20.08;;;;;;;7.32;68.53;99520.91;4903649;29;20028;-93
2023/03/03 09:19:51;;;;;;;34.10;17.90;;;;;;;7.33;68.09;99511.03;4903678;29;20024;-94
2023/03/03 09:22:24;;;;;;;36.25;18.83;;;;;;;7.27;68.28;99502.91;4904458;29;20030;-94
2023/03/03 09:24:55;;;;;;;39.40;19.95;;;;;;;7.38;68.78;99508.41;4904306;29;20024;-94
2023/03/03 09:27:31;;;;;;;40.75;18.75;;;;;;;7.29;68.67;99505.34;4903972;29;20122;-92
2023/03/03 09:30:17;;;;;;;34.90;18.40;;;;;;;7.40;68.35;99507.13;4904114;29;20035;-94
2023/03/03 09:32:42;;;;;;;35.70;18.25;;;;;;;7.44;68.22;99499.41;4909916;29;20040;-93
2023/03/03 09:35:30;;;;;;;40.58;19.52;;;;;;;7.37;68.46;99509.50;4903889;29;20059;-93
2023/03/03 09:38:01;;;;;;;32.63;17.20;;;;;;;7.51;67.54;99502.72;4904059;29;20105;-95
2023/03/03 09:41:04;;;;;;;36.58;17.13;;;;;;;7.48;67.62;99508.59;4903934;29;20040;-92
2023/03/03 09:43:50;;;;;;;36.15;17.33;;;;;;;7.62;66.82;99491.13;4918244;29;20028;-94
2023/03/03 09:46:24;;;;;;;32.53;16.83;;;;;;;7.75;67.82;99502.56;4902524;29;20114;-94
2023/03/03 09:49:08;;;;;;;33.72;17.95;;;;;;;7.75;66.40;99495.31;4918793;29;20395;-94
2023/03/03 09:51:36;;;;;;;34.08;17.33;;;;;;;7.87;66.59;99497.91;4902790;29;20068;-95
2023/03/03 09:54:11;;;;;;;40.45;17.08;;;;;;;8.03;66.19;99497.03;4918147;29;20028;-94
2023/03/03 09:56:43;;;;;;;38.58;17.52;;;;;;;7.93;66.07;99483.50;4918706;29;20028;-94
2023/03/03 09:59:27;;;;;;;29.30;16.75;;;;;;;8.28;64.85;99493.84;4903431;29;20064;-94
2023/03/03 10:02:20;;;;;;;27.95;14.82;;;;;;;8.52;63.73;99495.50;4918879;29;20052;-95
2023/03/03 10:05:04;;;;;;;33.10;16.48;;;;;;;8.56;63.27;99497.41;4919009;29;20028;-93
2023/03/03 10:08:25;;;;;;;28.63;15.38;;;;;;;8.59;63.32;99498.78;4918958;29;20059;-94
2023/03/03 10:11:03;;;;;;;31.05;15.50;;;;;;;8.60;62.71;99495.84;4861387;29;20064;-94
2023/03/03 10:13:56;;;;;;;32.65;15.70;;;;;;;8.73;62.67;99491.16;4918840;29;20475;-94
2023/03/03 10:16:52;;;;;;;31.33;15.25;;;;;;;8.77;62.84;99485.00;4927856;29;20028;-95
2023/03/03 10:19:59;;;;;;;31.52;16.35;;;;;;;8.90;62.08;99476.56;4936280;29;20024;-95
2023/03/03 11:43:24;;;;;;;30.05;14.50;;;;;;;9.21;61.27;99377.41;4898511;29;20067;-94
2023/03/03 11:45:50;;;;;;;;;;;;;;;9.28;60.34;99386.06;4889283;29;20032;-94
2023/03/03 11:48:17;;;;;;;34.25;16.50;;;;;;;9.11;61.94;99380.03;4883799;29;20317;-94
2023/03/03 11:50:52;;;;;;;30.08;14.80;;;;;;;8.97;61.89;99368.94;4870025;29;20060;-93
2023/03/03 11:53:46;;;;;;;34.95;15.18;;;;;;;9.05;61.97;99373.81;4870394;29;20029;-93
2023/03/03 11:56:22;;;;;;;34.03;15.40;;;;;;;9.21;61.89;99368.53;4871327;29;20035;-94
2023/03/03 11:58:57;;;;;;;30.75;15.90;;;;;;;9.22;60.77;99367.47;4870554;29;20033;-94
2023/03/03 12:01:35;;;;;;;27.95;14.73;;;;;;;8.92;61.16;99360.00;4855440;29;20055;-93
2023/03/03 12:04:09;;;;;;;28.45;15.02;;;;;;;8.80;61.78;99350.28;4855695;29;20479;-92
2023/03/03 12:07:06;;;;;;;31.48;15.32;;;;;;;8.80;61.63;99365.56;4855588;29;20028;-93
2023/03/03 12:09:50;;;;;;;26.60;14.63;;;;;;;8.79;61.55;99347.84;4869985;29;20032;-93
2023/03/03 12:12:22;;;;;;;28.67;14.88;;;;;;;8.89;62.52;99372.88;4870140;29;20035;-91
2023/03/03 12:14:57;;;;;;;27.45;15.40;;;;;;;9.02;61.40;99382.38;4855569;29;20058;-93
2023/03/03 12:17:54;;;;;;;31.73;15.00;;;;;;;8.87;61.81;99375.03;4885132;29;20036;-94
2023/03/03 12:20:22;;;;;;;26.98;15.75;;;;;;;8.88;61.32;99368.59;4886152;29;20029;-92
2023/03/03 12:23:05;;;;;;;36.25;15.27;;;;;;;8.75;61.81;99374.38;4885600;29;20496;-95
2023/03/03 12:25:42;;;;;;;31.70;16.27;;;;;;;8.87;61.61;99383.06;4871107;29;20029;-94
2023/03/03 12:28:23;;;;;;;32.58;16.65;;;;;;;8.75;61.91;99385.13;4854687;29;20028;-94
2023/03/03 12:30:59;;;;;;;31.80;15.43;;;;;;;8.65;62.89;99390.41;4855906;29;20123;-94
2023/03/03 12:33:39;;;;;;;36.53;16.63;;;;;;;8.66;63.37;99389.34;4869488;29;20036;-93
2023/03/03 12:36:23;;;;;;;33.97;17.48;;;;;;;8.63;63.29;99393.38;4869206;29;20123;-94
2023/03/03 12:39:12;;;;;;;41.75;18.52;;;;;;;8.64;62.96;99386.91;4885166;29;20100;-94
2023/03/03 12:41:46;;;;;;;40.42;18.33;;;;;;;8.58;62.89;99393.31;4879873;29;20052;-94
2023/03/03 12:44:41;;;;;;;34.38;17.60;;;;;;;8.34;63.65;99390.09;4888217;29;20024;-93
2023/03/03 12:47:18;;;;;;;34.92;16.88;;;;;;;8.08;64.79;99386.34;4869475;29;20051;-93
2023/03/03 12:50:03;;;;;;;29.63;18.17;;;;;;;8.01;64.73;99369.63;4872737;29;20032;-93
2023/03/03 12:52:42;;;;;;;36.95;17.05;;;;;;;8.13;64.90;99388.25;4891633;29;20151;-93
2023/03/03 12:55:20;;;;;;;45.47;20.15;;;;;;;8.26;64.26;99386.00;4888122;29;20406;-93
2023/03/03 12:57:52;;;;;;;40.53;18.88;;;;;;;8.16;64.95;99388.56;4904113;29;20558;-94
2023/03/03 13:00:36;;;;;;;36.63;18.17;;;;;;;8.22;64.41;99392.94;4903104;29;20029;-94
2023/03/03 13:03:29;;;;;;;37.95;17.77;;;;;;;8.16;64.33;99374.38;4887759;29;20508;-93
2023/03/03 13:06:23;;;;;;;42.35;18.65;;;;;;;8.24;64.40;99396.19;4890217;29;20032;-93
2023/03/03 13:09:15;;;;;;;37.25;17.58;;;;;;;8.09;65.46;99390.63;4873902;29;20406;-93
2023/03/03 13:11:41;;;;;;;41.30;17.60;;;;;;;8.14;65.31;99398.75;4901986;29;20043;-93
2023/03/03 13:14:47;;;;;;;31.23;16.17;;;;;;;8.15;65.01;99383.47;4902917;29;20028;-93
2023/03/03 13:17:25;;;;;;;33.85;16.90;;;;;;;8.25;64.57;99391.63;4872780;29;20059;-92
2023/03/03 13:20:00;;;;;;;41.85;17.73;;;;;;;8.02;65.23;99382.78;4887283;29;20036;-93
2023/03/03 13:22:46;;;;;;;36.60;18.08;;;;;;;7.98;65.69;99395.06;4872192;29;20450;-93
2023/03/03 13:25:36;;;;;;;38.35;18.75;;;;;;;8.12;65.42;99392.81;4903546;29;20103;-93
2023/03/03 13:28:11;;;;;;;38.28;17.13;;;;;;;8.12;65.31;99387.47;4903935;29;20051;-93
2023/03/03 13:30:39;;;;;;;35.33;16.88;;;;;;;7.97;66.18;99388.09;4873540;29;20051;-94
2023/03/03 13:33:10;;;;;;;35.90;17.77;;;;;;;8.10;65.39;99386.91;4871838;29;20392;-93
2023/03/03 13:35:47;;;;;;;42.13;18.67;;;;;;;8.09;65.89;99383.41;4887894;29;20036;-94